createdAt,value
2022-08-05T00:01:48.606Z,24.06
2022-08-05T00:04:08.361Z,23.96
2022-08-05T00:06:33.201Z,23.88
2022-08-05T00:08:58.305Z,23.98
2022-08-05T00:11:30.508Z,24.05
2022-08-05T00:13:53.017Z,24.07
2022-08-05T00:16:17.421Z,23.96
2022-08-05T00:18:44.236Z,23.94
2022-08-05T00:21:10.143Z,23.96
2022-08-05T00:23:46.470Z,23.85
2022-08-05T00:26:02.866Z,23.87
2022-08-05T00:28:29.425Z,23.93
2022-08-05T00:30:55.606Z,23.83
2022-08-05T00:34:55.634Z,23.80
2022-08-05T00:36:16.139Z,23.78
2022-08-05T00:38:14.688Z,23.78
2022-08-05T00:40:41.064Z,23.75
2022-08-05T00:43:07.822Z,23.76
2022-08-05T00:45:38.801Z,23.84
2022-08-05T00:48:05.605Z,23.87
2022-08-05T00:50:26.606Z,23.84
2022-08-05T00:52:53.473Z,23.82
2022-08-05T00:55:19.321Z,23.79
2022-08-05T00:57:58.508Z,23.74
2022-08-05T01:00:13.310Z,23.73
2022-08-05T01:02:38.581Z,23.70
2022-08-05T01:05:05.078Z,23.68
2022-08-05T01:07:31.750Z,23.65
2022-08-05T01:09:57.750Z,23.60
2022-08-05T01:12:24.117Z,23.55
2022-08-05T01:14:50.478Z,23.47
2022-08-05T01:17:16.893Z,23.45
2022-08-05T01:20:00.681Z,23.45
2022-08-05T01:22:10.852Z,23.38
2022-08-05T01:24:36.026Z,23.33
2022-08-05T01:27:17.904Z,23.32
2022-08-05T01:29:30.773Z,23.28
2022-08-05T01:31:56.825Z,23.20
2022-08-05T01:34:26.850Z,23.19
2022-08-05T01:36:49.571Z,23.18
2022-08-05T01:39:16.094Z,23.18
2022-08-05T01:41:44.369Z,23.16
2022-08-05T01:44:09.905Z,23.12
2022-08-05T01:46:41.476Z,23.10
2022-08-05T01:49:01.552Z,23.06
2022-08-05T01:51:29.395Z,23.05
2022-08-05T01:53:56.961Z,23.04
2022-08-05T01:58:13.077Z,23.03
2022-08-05T01:58:47.357Z,23.04
2022-08-05T02:01:13.497Z,22.97
2022-08-05T02:03:39.889Z,22.94
2022-08-05T02:06:37.035Z,22.92
2022-08-05T02:08:32.636Z,22.94
2022-08-05T02:10:59.140Z,22.90
2022-08-05T02:13:25.502Z,22.86
2022-08-05T02:15:51.883Z,22.82
2022-08-05T02:18:32.691Z,22.72
2022-08-05T02:20:44.771Z,22.75
2022-08-05T02:23:11.146Z,22.84
2022-08-05T02:25:49.553Z,22.89
2022-08-05T02:28:08.926Z,22.86
2022-08-05T02:30:30.278Z,22.80
2022-08-05T02:32:56.655Z,22.77
2022-08-05T02:35:28.259Z,22.74
2022-08-05T02:37:53.883Z,22.73
2022-08-05T02:40:15.796Z,22.75
2022-08-05T02:42:42.178Z,22.71
2022-08-05T02:45:08.592Z,22.70
2022-08-05T02:47:58.722Z,22.71
2022-08-05T02:50:01.322Z,22.69
2022-08-05T02:52:30.465Z,22.67
2022-08-05T02:54:54.113Z,22.64
2022-08-05T02:58:10.281Z,22.59
2022-08-05T02:59:50.111Z,22.55
2022-08-05T03:02:13.362Z,22.51
2022-08-05T03:04:39.719Z,22.49
2022-08-05T03:07:06.143Z,22.50
2022-08-05T03:09:37.661Z,22.45
2022-08-05T03:11:58.949Z,22.45
2022-08-05T03:14:25.326Z,22.47
2022-08-05T03:16:53.469Z,22.49
2022-08-05T03:19:33.126Z,22.45
2022-08-05T03:21:49.554Z,22.41
2022-08-05T03:24:10.919Z,22.41
2022-08-05T03:26:37.436Z,22.37
2022-08-05T03:29:03.825Z,22.41
2022-08-05T03:31:56.549Z,22.41
2022-08-05T03:33:56.547Z,22.37
2022-08-05T03:36:29.776Z,22.31
2022-08-05T03:38:52.564Z,22.23
2022-08-05T03:41:15.713Z,22.18
2022-08-05T03:44:09.023Z,22.15
2022-08-05T03:46:08.449Z,22.12
2022-08-05T03:48:35.073Z,22.11
2022-08-05T03:52:35.165Z,22.17
2022-08-05T03:55:51.169Z,22.23
2022-08-05T03:56:10.514Z,22.19
2022-08-05T03:58:20.304Z,22.10
2022-08-05T04:00:51.379Z,22.15
2022-08-05T04:03:26.597Z,22.21
2022-08-05T04:05:40.183Z,22.16
2022-08-05T04:08:14.828Z,22.12
2022-08-05T04:10:37.743Z,22.14
2022-08-05T04:12:58.974Z,22.21
2022-08-05T04:15:24.902Z,22.23
2022-08-05T04:17:56.258Z,22.22
2022-08-05T04:20:17.677Z,22.21
2022-08-05T04:22:44.039Z,22.18
2022-08-05T04:25:10.891Z,22.13
2022-08-05T04:27:43.606Z,22.09
2022-08-05T04:30:03.720Z,22.12
2022-08-05T04:32:30.996Z,22.11
2022-08-05T04:34:57.613Z,22.09
2022-08-05T04:37:23.085Z,22.11
2022-08-05T04:39:52.738Z,22.17
2022-08-05T04:42:15.196Z,22.26
2022-08-05T04:44:41.657Z,22.32
2022-08-05T04:47:08.772Z,22.37
2022-08-05T04:50:02.025Z,22.44
2022-08-05T04:52:00.891Z,22.39
2022-08-05T04:54:27.284Z,22.37
2022-08-05T04:56:56.298Z,22.44
2022-08-05T04:59:24.015Z,22.54
2022-08-05T05:02:07.624Z,22.60
2022-08-05T05:04:12.789Z,22.66
2022-08-05T05:06:44.924Z,22.74
2022-08-05T05:09:05.918Z,22.82
2022-08-05T05:11:41.562Z,22.94
2022-08-05T05:13:58.749Z,23.05
2022-08-05T05:16:30.413Z,23.19
2022-08-05T05:19:09.193Z,23.33
2022-08-05T05:21:18.082Z,23.45
2022-08-05T05:24:04.050Z,23.57
2022-08-05T05:26:10.864Z,23.75
2022-08-05T05:28:42.661Z,23.95
2022-08-05T05:31:05.631Z,24.18
2022-08-05T05:33:30.265Z,24.39
2022-08-05T05:35:56.622Z,24.49
2022-08-05T05:38:27.502Z,24.63
2022-08-05T05:40:51.314Z,24.87
2022-08-05T05:43:15.844Z,25.02
2022-08-05T05:45:42.626Z,25.12
2022-08-05T05:48:08.927Z,25.20
2022-08-05T05:50:35.039Z,25.30
2022-08-05T05:53:01.475Z,25.42
2022-08-05T05:55:52.363Z,25.57
2022-08-05T05:57:54.236Z,25.79
2022-08-05T06:00:20.729Z,26.06
2022-08-05T06:02:47.207Z,26.28
2022-08-05T06:05:16.445Z,26.42
2022-08-05T06:07:42.010Z,26.46
2022-08-05T06:10:10.272Z,26.61
2022-08-05T06:12:32.751Z,26.79
2022-08-05T06:14:59.132Z,26.93
2022-08-05T06:17:31.087Z,27.05
2022-08-05T06:19:56.742Z,27.24
2022-08-05T06:22:18.365Z,27.49
2022-08-05T06:24:48.280Z,27.70
2022-08-05T06:28:09.409Z,27.87
2022-08-05T06:29:46.644Z,28.04
2022-08-05T06:32:03.905Z,28.12
2022-08-05T06:34:30.271Z,28.21
2022-08-05T06:36:57.961Z,28.31
2022-08-05T06:39:24.620Z,28.47
2022-08-05T06:41:49.419Z,28.64
2022-08-05T06:44:15.797Z,28.61
2022-08-05T06:46:42.195Z,28.57
2022-08-05T06:49:08.685Z,28.62
2022-08-05T06:51:35.046Z,28.81
2022-08-05T06:54:01.695Z,29.02
2022-08-05T06:56:27.870Z,29.24
2022-08-05T06:58:54.219Z,29.49
2022-08-05T07:01:21.059Z,29.60
2022-08-05T07:03:47.015Z,29.70
2022-08-05T07:06:14.302Z,30.02
2022-08-05T07:08:39.911Z,30.49
2022-08-05T07:11:06.298Z,30.87
2022-08-05T07:13:57.147Z,31.01
2022-08-05T07:16:01.174Z,31.10
2022-08-05T07:18:30.253Z,31.16
2022-08-05T07:20:51.881Z,31.40
2022-08-05T07:23:26.448Z,31.39
2022-08-05T07:25:56.032Z,31.30
2022-08-05T07:28:17.117Z,31.32
2022-08-05T07:30:39.109Z,31.16
2022-08-05T07:33:05.499Z,31.08
2022-08-05T07:36:03.137Z,31.18
2022-08-05T07:37:56.764Z,31.31
2022-08-05T07:40:32.342Z,31.55
2022-08-05T07:42:49.582Z,32.03
2022-08-05T07:45:15.965Z,32.40
2022-08-05T07:47:42.752Z,32.57
2022-08-05T07:50:08.742Z,32.64
2022-08-05T07:52:35.124Z,32.73
2022-08-05T07:55:01.509Z,32.68
2022-08-05T07:57:51.163Z,32.72
2022-08-05T07:59:54.362Z,32.66
2022-08-05T08:02:20.755Z,32.51
2022-08-05T08:04:47.308Z,32.45
2022-08-05T08:07:13.567Z,32.58
2022-08-05T08:09:39.949Z,32.36
2022-08-05T08:12:14.681Z,32.32
2022-08-05T08:14:32.702Z,32.38
2022-08-05T08:16:59.074Z,32.63
2022-08-05T08:20:21.453Z,32.94
2022-08-05T08:21:51.825Z,33.10
2022-08-05T08:24:18.285Z,33.36
2022-08-05T08:26:44.675Z,33.62
2022-08-05T08:30:03.585Z,33.73
2022-08-05T08:31:37.676Z,33.69
2022-08-05T08:34:04.062Z,33.47
2022-08-05T08:36:47.694Z,33.36
2022-08-05T08:38:57.388Z,33.34
2022-08-05T08:41:26.209Z,33.33
2022-08-05T08:45:18.598Z,33.58
2022-08-05T08:46:16.238Z,33.88
2022-08-05T08:49:07.540Z,34.21
2022-08-05T08:51:54.566Z,34.32
2022-08-05T08:53:35.194Z,34.37
2022-08-05T08:56:04.879Z,34.39
2022-08-05T08:58:43.683Z,34.65
2022-08-05T09:00:54.496Z,34.73
2022-08-05T09:03:20.969Z,34.83
2022-08-05T09:06:07.941Z,34.90
2022-08-05T09:08:13.615Z,34.90
2022-08-05T09:10:40.218Z,34.88
2022-08-05T09:13:06.422Z,34.92
2022-08-05T09:15:37.040Z,34.92
2022-08-05T09:17:59.154Z,34.98
2022-08-05T09:20:37.491Z,35.08
2022-08-05T09:22:52.089Z,35.08
2022-08-05T09:25:23.832Z,35.00
2022-08-05T09:28:04.669Z,34.84
2022-08-05T09:30:16.494Z,34.93
2022-08-05T09:32:46.221Z,35.18
2022-08-05T09:35:04.021Z,35.41
2022-08-05T09:38:12.689Z,35.27
2022-08-05T09:39:56.941Z,35.08
2022-08-05T09:42:28.453Z,35.11
2022-08-05T09:44:50.507Z,35.28
2022-08-05T09:47:16.024Z,35.46
2022-08-05T09:49:55.001Z,35.70
2022-08-05T09:52:08.767Z,35.68
2022-08-05T09:54:35.195Z,35.43
2022-08-05T09:57:02.031Z,35.38
2022-08-05T09:59:27.990Z,35.56
2022-08-05T10:01:57.832Z,35.64
2022-08-05T10:04:29.357Z,35.71
2022-08-05T10:06:54.847Z,35.91
2022-08-05T10:09:25.338Z,35.94
2022-08-05T10:11:39.835Z,36.16
2022-08-05T10:14:06.195Z,36.41
2022-08-05T10:16:33.866Z,36.72
2022-08-05T10:18:58.985Z,36.90
2022-08-05T10:21:25.375Z,36.82
2022-08-05T10:23:59.445Z,36.75
2022-08-05T10:26:18.222Z,36.77
2022-08-05T10:28:45.047Z,36.75
2022-08-05T10:32:48.339Z,36.63
2022-08-05T10:33:37.347Z,36.57
2022-08-05T10:36:03.734Z,36.46
2022-08-05T10:38:33.276Z,36.44
2022-08-05T10:40:57.900Z,36.46
2022-08-05T10:43:23.291Z,36.46
2022-08-05T10:45:49.267Z,36.41
2022-08-05T10:48:30.043Z,36.39
2022-08-05T10:50:42.025Z,36.43
2022-08-05T10:53:08.415Z,36.41
2022-08-05T10:56:03.583Z,36.46
2022-08-05T10:58:01.182Z,36.61
2022-08-05T11:00:27.551Z,36.66
2022-08-05T11:02:54.108Z,36.59
2022-08-05T11:05:20.446Z,36.57
2022-08-05T11:08:03.181Z,36.63
2022-08-05T11:10:13.234Z,36.60
2022-08-05T11:12:41.193Z,36.61
2022-08-05T11:15:11.825Z,36.61
2022-08-05T11:17:57.401Z,36.59
2022-08-05T11:20:10.048Z,36.54
2022-08-05T11:22:25.217Z,36.49
2022-08-05T11:25:16.563Z,36.51
2022-08-05T11:27:17.985Z,36.47
2022-08-05T11:29:44.386Z,36.48
2022-08-05T11:32:10.774Z,36.50
2022-08-05T11:34:37.144Z,36.51
2022-08-05T11:37:06.144Z,36.50
2022-08-05T11:39:29.983Z,36.64
2022-08-05T11:42:04.615Z,36.78
2022-08-05T11:44:53.029Z,36.90
2022-08-05T11:46:58.119Z,37.03
2022-08-05T11:49:15.475Z,36.99
2022-08-05T11:51:44.668Z,36.85
2022-08-05T11:54:08.259Z,36.72
2022-08-05T11:56:40.661Z,36.63
2022-08-05T11:59:01.231Z,36.55
2022-08-05T12:01:27.642Z,36.55
2022-08-05T12:03:55.487Z,36.55
2022-08-05T12:06:20.396Z,36.56
2022-08-05T12:08:49.843Z,36.46
2022-08-05T12:11:17.249Z,36.32
2022-08-05T12:13:48.763Z,36.18
2022-08-05T12:16:14.894Z,36.07
2022-08-05T12:18:33.158Z,36.07
2022-08-05T12:20:58.797Z,36.11
2022-08-05T12:23:25.233Z,36.22
2022-08-05T12:25:51.627Z,36.33
2022-08-05T12:28:18.102Z,36.44
2022-08-05T12:30:45.751Z,36.48
2022-08-05T12:33:27.443Z,36.49
2022-08-05T12:35:39.835Z,36.47
2022-08-05T12:38:03.626Z,36.39
2022-08-05T12:40:30.046Z,36.30
2022-08-05T12:42:56.405Z,36.31
2022-08-05T12:45:22.787Z,36.26
2022-08-05T12:48:17.206Z,36.37
2022-08-05T12:50:15.566Z,36.53
2022-08-05T12:52:42.808Z,36.83
2022-08-05T12:55:08.295Z,37.01
2022-08-05T12:58:49.881Z,37.06
2022-08-05T13:01:57.606Z,36.97
2022-08-05T13:02:30.579Z,36.94
2022-08-05T13:04:54.706Z,36.77
2022-08-05T13:07:35.798Z,36.61
2022-08-05T13:09:50.445Z,36.48
2022-08-05T13:12:16.234Z,36.37
2022-08-05T13:14:39.565Z,36.25
2022-08-05T13:17:05.975Z,36.17
2022-08-05T13:19:51.760Z,36.10
2022-08-05T13:21:58.803Z,36.01
2022-08-05T13:24:36.529Z,35.94
2022-08-05T13:26:51.546Z,35.82
2022-08-05T13:29:18.977Z,35.69
2022-08-05T13:32:04.178Z,35.63
2022-08-05T13:34:20.920Z,35.59
2022-08-05T13:36:37.161Z,35.59
2022-08-05T13:39:08.390Z,35.60
2022-08-05T13:41:37.438Z,35.57
2022-08-05T13:43:56.396Z,35.55
2022-08-05T13:47:01.835Z,35.52
2022-08-05T13:48:58.906Z,35.42
2022-08-05T13:51:15.669Z,35.24
2022-08-05T13:53:47.437Z,35.16
2022-08-05T13:56:18.081Z,35.02
2022-08-05T13:58:34.770Z,34.93
2022-08-05T14:01:01.169Z,34.91
2022-08-05T14:03:27.580Z,34.92
2022-08-05T14:06:25.765Z,34.90
2022-08-05T14:08:27.743Z,34.88
2022-08-05T14:10:46.651Z,34.83
2022-08-05T14:13:13.072Z,34.77
2022-08-05T14:16:05.724Z,34.69
2022-08-05T14:18:05.886Z,34.57
2022-08-05T14:20:32.273Z,34.49
2022-08-05T14:22:58.656Z,34.44
2022-08-05T14:25:28.036Z,34.37
2022-08-05T14:27:51.520Z,34.31
2022-08-05T14:30:20.488Z,34.28
2022-08-05T14:32:44.338Z,34.22
2022-08-05T14:35:11.418Z,34.17
2022-08-05T14:37:45.713Z,34.13
2022-08-05T14:40:03.502Z,34.08
2022-08-05T14:42:29.982Z,34.03
2022-08-05T14:44:56.702Z,33.99
2022-08-05T14:48:02.632Z,33.91
2022-08-05T14:49:59.172Z,33.80
2022-08-05T14:52:30.582Z,33.75
2022-08-05T14:54:53.307Z,33.73
2022-08-05T14:57:09.803Z,33.71
2022-08-05T14:59:35.490Z,33.68
2022-08-05T15:02:01.090Z,33.64
2022-08-05T15:04:29.121Z,33.61
2022-08-05T15:06:53.759Z,33.56
2022-08-05T15:09:51.531Z,33.49
2022-08-05T15:11:52.767Z,33.46
2022-08-05T15:14:34.210Z,33.35
2022-08-05T15:16:39.298Z,33.19
2022-08-05T15:19:05.672Z,33.16
2022-08-05T15:21:32.073Z,32.98
2022-08-05T15:23:58.457Z,33.01
2022-08-05T15:26:32.106Z,32.87
2022-08-05T15:28:52.068Z,32.72
2022-08-05T15:31:17.594Z,32.52
2022-08-05T15:34:05.247Z,32.41
2022-08-05T15:36:17.289Z,32.46
2022-08-05T15:38:41.775Z,32.57
2022-08-05T15:41:22.322Z,32.47
2022-08-05T15:43:29.761Z,32.35
2022-08-05T15:46:00.078Z,32.34
2022-08-05T15:48:22.403Z,32.42
2022-08-05T15:50:48.806Z,32.48
2022-08-05T15:53:15.197Z,32.38
2022-08-05T15:56:02.909Z,32.28
2022-08-05T15:58:08.014Z,32.28
2022-08-05T16:00:50.326Z,32.32
2022-08-05T16:03:00.910Z,32.36
2022-08-05T16:05:28.445Z,32.34
2022-08-05T16:07:53.619Z,32.38
2022-08-05T16:10:25.325Z,32.37
2022-08-05T16:12:46.456Z,32.34
2022-08-05T16:15:18.161Z,32.27
2022-08-05T16:17:39.210Z,32.28
2022-08-05T16:20:11.243Z,32.25
2022-08-05T16:22:33.760Z,32.08
2022-08-05T16:24:58.356Z,32.06
2022-08-05T16:27:32.332Z,32.05
2022-08-05T16:29:51.373Z,32.08
2022-08-05T16:32:17.554Z,32.07
2022-08-05T16:34:43.922Z,31.98
2022-08-05T16:38:01.885Z,31.90
2022-08-05T16:40:04.969Z,31.88
2022-08-05T16:42:14.698Z,31.85
2022-08-05T16:44:29.461Z,31.82
2022-08-05T16:46:56.385Z,31.73
2022-08-05T16:49:22.359Z,31.74
2022-08-05T16:51:51.380Z,31.71
2022-08-05T16:54:18.575Z,31.69
2022-08-05T16:56:41.872Z,31.66
2022-08-05T16:59:08.697Z,31.61
2022-08-05T17:01:54.673Z,31.55
2022-08-05T17:04:00.724Z,31.48
2022-08-05T17:06:27.085Z,31.45
2022-08-05T17:08:54.608Z,31.37
2022-08-05T17:11:19.828Z,31.31
2022-08-05T17:13:46.207Z,31.24
2022-08-05T17:16:29.756Z,31.19
2022-08-05T17:18:39.075Z,31.14
2022-08-05T17:21:05.475Z,31.11
2022-08-05T17:24:04.959Z,31.04
2022-08-05T17:25:58.224Z,30.96
2022-08-05T17:28:24.661Z,30.90
2022-08-05T17:30:52.360Z,30.85
2022-08-05T17:33:17.409Z,30.82
2022-08-05T17:36:08.159Z,30.78
2022-08-05T17:38:10.282Z,30.70
2022-08-05T17:40:36.689Z,30.61
2022-08-05T17:43:03.096Z,30.52
2022-08-05T17:45:37.893Z,30.46
2022-08-05T17:47:56.381Z,30.41
2022-08-05T17:50:27.777Z,30.40
2022-08-05T17:52:52.868Z,30.33
2022-08-05T17:55:15.118Z,30.28
2022-08-05T17:57:41.543Z,30.24
2022-08-05T18:00:07.933Z,30.23
2022-08-05T18:02:34.410Z,30.17
2022-08-05T18:05:01.078Z,30.13
2022-08-05T18:07:32.970Z,30.08
2022-08-05T18:09:59.446Z,30.04
2022-08-05T18:12:24.303Z,29.96
2022-08-05T18:14:46.446Z,29.91
2022-08-05T18:18:00.134Z,29.87
2022-08-05T18:19:39.040Z,29.86
2022-08-05T18:22:08.499Z,29.85
2022-08-05T18:24:31.805Z,29.82
2022-08-05T18:26:58.224Z,29.77
2022-08-05T18:29:40.406Z,29.68
2022-08-05T18:31:51.040Z,29.58
2022-08-05T18:34:17.529Z,29.48
2022-08-05T18:36:43.899Z,29.34
2022-08-05T18:39:42.591Z,29.39
2022-08-05T18:42:00.435Z,29.43
2022-08-05T18:44:05.840Z,29.41
2022-08-05T18:46:29.377Z,29.42
2022-08-05T18:48:55.769Z,29.39
2022-08-05T18:52:03.340Z,29.37
2022-08-05T18:53:50.388Z,29.32
2022-08-05T18:56:14.935Z,29.33
2022-08-05T18:58:43.003Z,29.32
2022-08-05T19:01:08.068Z,29.31
2022-08-05T19:03:55.015Z,29.26
2022-08-05T19:06:11.605Z,29.22
2022-08-05T19:08:30.843Z,29.20
2022-08-05T19:10:53.797Z,29.19
2022-08-05T19:13:20.163Z,29.15
2022-08-05T19:15:58.260Z,29.16
2022-08-05T19:18:21.059Z,29.11
2022-08-05T19:20:41.440Z,29.06
2022-08-05T19:23:07.949Z,29.01
2022-08-05T19:25:41.917Z,28.90
2022-08-05T19:27:58.554Z,28.86
2022-08-05T19:30:24.976Z,28.84
2022-08-05T19:32:51.337Z,28.80
2022-08-05T19:35:17.729Z,28.77
2022-08-05T19:38:04.234Z,28.74
2022-08-05T19:40:10.844Z,28.71
2022-08-05T19:42:37.074Z,28.68
2022-08-05T19:45:06.014Z,28.60
2022-08-05T19:47:29.759Z,28.50
2022-08-05T19:49:57.167Z,28.41
2022-08-05T19:52:31.242Z,28.35
2022-08-05T19:54:48.969Z,28.33
2022-08-05T19:57:15.437Z,28.34
2022-08-05T19:59:56.536Z,28.35
2022-08-05T20:02:08.186Z,28.31
2022-08-05T20:04:34.626Z,28.22
2022-08-05T20:07:01.032Z,28.17
2022-08-05T20:09:27.424Z,28.12
2022-08-05T20:11:53.786Z,28.07
2022-08-05T20:14:23.519Z,28.03
2022-08-05T20:16:46.561Z,27.97
2022-08-05T20:19:12.978Z,27.97
2022-08-05T20:21:39.372Z,27.92
2022-08-05T20:24:05.743Z,27.92
2022-08-05T20:26:32.259Z,27.94
2022-08-05T20:29:00.765Z,27.88
2022-08-05T20:31:37.341Z,27.79
2022-08-05T20:33:51.431Z,27.75
2022-08-05T20:36:18.110Z,27.77
2022-08-05T20:38:54.611Z,27.82
2022-08-05T20:41:10.718Z,27.89
2022-08-05T20:43:59.824Z,27.90
2022-08-05T20:46:03.493Z,27.90
2022-08-05T20:48:29.857Z,27.87
2022-08-05T20:50:56.241Z,27.84
2022-08-05T20:53:36.270Z,27.79
2022-08-05T20:56:07.738Z,27.76
2022-08-05T20:58:15.418Z,27.73
2022-08-05T21:00:49.719Z,27.69
2022-08-05T21:03:08.351Z,27.63
2022-08-05T21:05:47.883Z,27.53
2022-08-05T21:08:00.977Z,27.48
2022-08-05T21:10:27.359Z,27.48
2022-08-05T21:13:08.186Z,27.47
2022-08-05T21:15:20.123Z,27.44
2022-08-05T21:17:46.494Z,27.42
2022-08-05T21:20:12.865Z,27.38
2022-08-05T21:22:39.263Z,27.35
2022-08-05T21:25:05.938Z,27.32
2022-08-05T21:27:38.645Z,27.31
2022-08-05T21:29:58.554Z,27.25
2022-08-05T21:32:27.091Z,27.21
2022-08-05T21:35:08.390Z,27.17
2022-08-05T21:37:17.724Z,27.20
2022-08-05T21:39:44.121Z,27.20
2022-08-05T21:42:19.826Z,27.18
2022-08-05T21:44:36.842Z,27.14
2022-08-05T21:47:03.216Z,27.11
2022-08-05T21:49:59.501Z,27.08
2022-08-05T21:52:22.133Z,27.06
2022-08-05T21:54:27.835Z,27.04
2022-08-05T21:56:51.464Z,27.00
2022-08-05T21:59:24.252Z,26.94
2022-08-05T22:01:41.657Z,26.94
2022-08-05T22:04:07.953Z,26.91
2022-08-05T22:06:35.660Z,26.86
2022-08-05T22:09:00.824Z,26.83
2022-08-05T22:11:34.992Z,26.80
2022-08-05T22:14:19.619Z,26.77
2022-08-05T22:16:41.133Z,26.75
2022-08-05T22:18:49.233Z,26.71
2022-08-05T22:21:18.618Z,26.65
2022-08-05T22:24:01.180Z,26.64
2022-08-05T22:26:10.745Z,26.56
2022-08-05T22:28:32.027Z,26.47
2022-08-05T22:31:05.109Z,26.44
2022-08-05T22:33:58.513Z,26.42
2022-08-05T22:35:51.280Z,26.39
2022-08-05T22:38:19.667Z,26.34
2022-08-05T22:40:49.565Z,26.33
2022-08-05T22:43:10.384Z,26.31
2022-08-05T22:45:36.753Z,26.27
2022-08-05T22:48:03.117Z,26.17
2022-08-05T22:50:29.509Z,26.12
2022-08-05T22:52:55.944Z,26.14
2022-08-05T22:55:22.320Z,26.11
2022-08-05T22:57:48.983Z,26.08
2022-08-05T23:00:17.781Z,26.07
2022-08-05T23:02:46.478Z,26.06
2022-08-05T23:05:07.946Z,26.05
2022-08-05T23:07:43.825Z,26.07
2022-08-05T23:10:01.403Z,26.07
2022-08-05T23:12:28.630Z,26.03
2022-08-05T23:14:53.383Z,26.04
2022-08-05T23:17:24.068Z,26.02
2022-08-05T23:19:50.925Z,26.00
2022-08-05T23:22:12.510Z,25.95
2022-08-05T23:24:38.963Z,25.91
2022-08-05T23:27:05.342Z,25.91
2022-08-05T23:29:34.599Z,25.86
2022-08-05T23:31:58.258Z,25.83
2022-08-05T23:34:24.948Z,25.83
2022-08-05T23:36:50.997Z,25.81
2022-08-05T23:39:31.988Z,25.78
2022-08-05T23:41:48.574Z,25.73
2022-08-05T23:44:10.168Z,25.70
2022-08-05T23:46:37.516Z,25.67
2022-08-05T23:49:16.133Z,25.63
2022-08-05T23:51:29.309Z,25.60
2022-08-05T23:54:01.064Z,25.57
2022-08-05T23:56:27.490Z,25.54
2022-08-05T23:58:48.465Z,25.51
